Impacts METAR Board
IDs:

KEWR - Newark Intl, NJ, US

Updated at: 2000 UTC 21 Sep 2021
Potential Impact None Slight Moderate High
Time 21/08Z 21/09Z 21/10Z 21/11Z 21/12Z 21/13Z 21/14Z 21/15Z 21/16Z 21/17Z 21/18Z 21/19Z 21/20Z
Temp69 69 63 64 67 72 73 74 74 77 78 77 79
Dewpt56 57 56 57 58 60 60 60 60 60 58 60 62
Altim30.33 30.33 30.33 30.34 30.35 30.35 30.35 30.36 30.35 30.34 30.32 30.31 30.29
VIS10 10 10 10 10 10 10 10 10 10 10 10 10
CIG250 33 30 35 39 40 40 25 28 30 32 250 250
CoverBKNBKNBKNBKNBKNBKNBKNBKNBKNBKNBKNBKNBKN
FltCatVFRVFRMVFRVFRVFRVFRVFRMVFRMVFRMVFRVFRVFRVFR
WX--------------------------
WDir1106020103506010090901500110110
WSpd3 4 5 6 5 5 5 8 4 6 6 8 7
WGst-- -- -- -- -- -- -- -- -- -- -- -- 14
Raw hourly METARs
KEWR 210751Z 11003KT 10SM FEW028 BKN250 21/13 A3033 RMK AO2 SLP271 T02060133
KEWR 210851Z 06004KT 10SM FEW025 BKN033 BKN250 21/14 A3033 RMK AO2 SLP269 T02060139 56009
KEWR 210951Z 02005KT 10SM BKN030 BKN250 17/13 A3033 RMK AO2 SLP270 T01720133
KEWR 211051Z 01006KT 10SM BKN035 BKN250 18/14 A3034 RMK AO2 SLP274 T01780139
KEWR 211151Z 35005KT 10SM FEW028 BKN039 BKN250 19/14 A3035 RMK AO2 SLP278 T01940144 10206 20172 53009
KEWR 211251Z 06005KT 10SM FEW022 SCT028 BKN040 BKN250 22/16 A3035 RMK AO2 SLP277 T02220156
KEWR 211351Z 10005KT 10SM FEW022 SCT028 BKN040 BKN250 23/16 A3035 RMK AO2 SLP278 T02280156
KEWR 211451Z 09008KT 10SM BKN025 23/16 A3036 RMK AO2 SLP279 BKN V SCT T02330156 53000
KEWR 211551Z 09004KT 10SM BKN028 BKN250 23/16 A3035 RMK AO2 SLP276 T02330156
KEWR 211651Z 15006KT 10SM BKN030 BKN250 25/16 A3034 RMK AO2 SLP272 T02500156
KEWR 211751Z VRB06KT 10SM BKN032 BKN250 26/14 A3032 RMK AO2 SLP267 T02560144 10261 20194 58012
KEWR 211851Z 11008KT 10SM SCT038 BKN250 25/16 A3031 RMK AO2 SLP263 T02500156
KEWR 211951Z 11007G14KT 060V120 10SM SCT034 BKN250 26/17 A3029 RMK AO2 SLP256 T02610167



Page loaded:  20:40 UTC  |   01:40 PM Pacific  |   02:40 PM Mountain  |   03:40 PM Central  |   04:40 PM Eastern

 

ADVISORIES

FORECASTS

FORECASTS

OBSERVATIONS

USER TOOLS

ABOUT US